Time;durP1;ratioP1;P1;durP2;ratioP2;P2;SDS_P1;SDS_P2;PMS_P1;PMS_P2;Temp;Humidity;BMP_temperature;BMP_pressure;BME280_temperature;BME280_humidity;BME280_pressure;Samples;Min_cycle;Max_cycle;Signal;HPM_P1;HPM_P2
2022/07/31 00:02:09;;;;;;;;;;;26.90;36.80;;;;;;8367338;28;19967;-43
2022/07/31 00:06:09;;;;;;;;;;;26.90;36.80;;;;;;8366509;28;19971;-42
2022/07/31 00:10:09;;;;;;;;;;;26.90;36.80;;;;;;8375230;28;19923;-42
2022/07/31 00:14:11;;;;;;;;;;;26.80;36.80;;;;;;8400488;28;19974;-43
2022/07/31 00:18:11;;;;;;;;;;;26.80;36.80;;;;;;8400477;28;19916;-44
2022/07/31 00:22:12;;;;;;;;;;;26.80;36.80;;;;;;8400466;28;20386;-43
2022/07/31 00:26:12;;;;;;;;;;;26.80;36.80;;;;;;8399681;28;19925;-43
2022/07/31 00:30:13;;;;;;;;;;;26.80;36.90;;;;;;8400374;28;19916;-43
2022/07/31 00:34:13;;;;;;;;;;;26.80;36.90;;;;;;8400331;28;19916;-44
2022/07/31 00:38:14;;;;;;;;;;;26.80;36.90;;;;;;8399306;28;20399;-44
2022/07/31 00:42:17;;;;;;;;;;;26.80;36.90;;;;;;8399672;28;19923;-44
2022/07/31 00:46:17;;;;;;;;;;;26.80;36.90;;;;;;8399563;28;20015;-43
2022/07/31 00:50:18;;;;;;;;;;;26.80;36.90;;;;;;8399230;28;19923;-43
2022/07/31 00:54:18;;;;;;;;;;;26.80;37.00;;;;;;8399933;28;20003;-43
2022/07/31 00:58:19;;;;;;;;;;;26.80;36.90;;;;;;8399185;28;19952;-43
2022/07/31 01:02:19;;;;;;;;;;;26.70;36.90;;;;;;8398655;28;20376;-43
2022/07/31 01:06:20;;;;;;;;;;;26.80;37.00;;;;;;8372490;28;20004;-43
2022/07/31 01:10:39;;;;;;;;;;;26.70;36.90;;;;;;8338736;28;19919;-44
2022/07/31 01:14:42;;;;;;;;;;;26.70;37.00;;;;;;8365466;28;20289;-43
2022/07/31 01:18:43;;;;;;;;;;;26.70;37.00;;;;;;8347731;28;20011;-43
2022/07/31 01:22:44;;;;;;;;;;;26.70;37.00;;;;;;8364909;28;19919;-42
2022/07/31 01:26:51;;;;;;;;;;;26.70;37.00;;;;;;8365061;28;20298;-43
2022/07/31 01:30:55;;;;;;;;;;;26.70;37.00;;;;;;8365121;28;19960;-42
2022/07/31 01:34:58;;;;;;;;;;;26.70;37.00;;;;;;8364647;28;19921;-43
2022/07/31 01:38:59;;;;;;;;;;;26.70;37.10;;;;;;8365192;28;20297;-43
2022/07/31 01:43:20;;;;;;;;;;;26.60;37.00;;;;;;8364870;28;19916;-43
2022/07/31 01:47:21;;;;;;;;;;;26.60;37.00;;;;;;8364019;28;20386;-43
2022/07/31 01:51:24;;;;;;;;;;;26.60;37.00;;;;;;8364514;28;20354;-43
2022/07/31 01:55:25;;;;;;;;;;;26.60;37.00;;;;;;8364568;28;20278;-43
2022/07/31 01:59:26;;;;;;;;;;;26.60;37.10;;;;;;8364079;28;19917;-43
2022/07/31 02:03:27;;;;;;;;;;;26.60;37.10;;;;;;8364244;28;20441;-43
2022/07/31 02:07:28;;;;;;;;;;;26.60;37.10;;;;;;8364056;28;19917;-43
2022/07/31 02:11:29;;;;;;;;;;;26.60;37.10;;;;;;8363567;28;20445;-43
2022/07/31 02:15:30;;;;;;;;;;;26.60;37.10;;;;;;8363644;28;19920;-43
2022/07/31 02:19:30;;;;;;;;;;;26.60;37.10;;;;;;8364171;28;20326;-42
2022/07/31 02:23:31;;;;;;;;;;;26.50;37.10;;;;;;8363107;28;19925;-43
2022/07/31 02:27:32;;;;;;;;;;;26.50;37.10;;;;;;8363597;28;19923;-43
2022/07/31 02:31:33;;;;;;;;;;;26.50;37.10;;;;;;8362830;28;19916;-45
2022/07/31 02:35:34;;;;;;;;;;;26.50;37.30;;;;;;8362957;28;19928;-42
2022/07/31 02:39:35;;;;;;;;;;;26.40;38.80;;;;;;8363448;28;20500;-43
2022/07/31 02:43:37;;;;;;;;;;;26.20;37.90;;;;;;8363301;28;19935;-43
2022/07/31 02:47:37;;;;;;;;;;;25.90;37.40;;;;;;8362642;28;19970;-44
2022/07/31 02:51:38;;;;;;;;;;;25.60;37.80;;;;;;8363252;28;19987;-43
2022/07/31 02:55:41;;;;;;;;;;;25.50;37.90;;;;;;8363156;28;19916;-43
2022/07/31 02:59:42;;;;;;;;;;;25.30;38.00;;;;;;8362923;28;20000;-43
2022/07/31 03:03:43;;;;;;;;;;;25.20;38.30;;;;;;8362846;28;20094;-43
2022/07/31 03:07:44;;;;;;;;;;;25.10;38.20;;;;;;8362586;28;19929;-43
2022/07/31 03:11:44;;;;;;;;;;;25.10;38.10;;;;;;8362708;28;19963;-44
2022/07/31 03:15:46;;;;;;;;;;;25.00;38.00;;;;;;8363066;28;19921;-43
2022/07/31 03:19:46;;;;;;;;;;;24.90;38.20;;;;;;8362457;28;19924;-42
2022/07/31 03:23:48;;;;;;;;;;;24.80;38.20;;;;;;8362460;28;20436;-43
2022/07/31 03:27:49;;;;;;;;;;;24.80;38.60;;;;;;8362582;28;19916;-43
2022/07/31 03:31:49;;;;;;;;;;;24.60;38.60;;;;;;8361995;28;19913;-42
2022/07/31 03:35:51;;;;;;;;;;;24.60;38.60;;;;;;8362321;28;19912;-43
2022/07/31 03:39:52;;;;;;;;;;;24.50;38.80;;;;;;8362696;28;19924;-42
2022/07/31 03:43:52;;;;;;;;;;;24.50;39.00;;;;;;8366207;28;19976;-41
2022/07/31 03:47:53;;;;;;;;;;;24.40;39.10;;;;;;8368587;28;20293;-43
2022/07/31 03:51:53;;;;;;;;;;;24.30;39.20;;;;;;8368132;28;20451;-43
2022/07/31 03:55:54;;;;;;;;;;;24.30;39.40;;;;;;8367568;28;20004;-43
2022/07/31 03:59:56;;;;;;;;;;;24.20;39.50;;;;;;8368250;28;20007;-42
2022/07/31 04:03:57;;;;;;;;;;;24.10;39.60;;;;;;8367784;28;19925;-42
2022/07/31 04:07:58;;;;;;;;;;;24.10;39.80;;;;;;8367236;28;19936;-43
2022/07/31 04:11:59;;;;;;;;;;;24.00;39.90;;;;;;8366409;28;19920;-43
2022/07/31 04:15:59;;;;;;;;;;;24.00;39.90;;;;;;8367520;28;19927;-43
2022/07/31 04:20:00;;;;;;;;;;;23.90;40.00;;;;;;8367189;28;19916;-44
2022/07/31 04:24:00;;;;;;;;;;;23.90;40.20;;;;;;8367574;28;20286;-43
2022/07/31 04:28:01;;;;;;;;;;;23.90;40.40;;;;;;8367050;28;19919;-43
2022/07/31 04:32:01;;;;;;;;;;;23.90;40.40;;;;;;8366476;28;19972;-44
2022/07/31 04:36:02;;;;;;;;;;;23.80;40.50;;;;;;8367222;28;20390;-44
2022/07/31 04:40:02;;;;;;;;;;;23.70;40.60;;;;;;8367015;28;19956;-44
2022/07/31 04:44:03;;;;;;;;;;;23.70;41.10;;;;;;8366223;28;20313;-43
2022/07/31 04:48:04;;;;;;;;;;;23.70;41.10;;;;;;8366410;28;20409;-43
2022/07/31 04:52:05;;;;;;;;;;;23.60;41.10;;;;;;8366082;28;19975;-44
2022/07/31 05:00:25;;;;;;;;;;;23.60;41.30;;;;;;8366845;28;20003;-45
2022/07/31 05:04:27;;;;;;;;;;;23.60;41.50;;;;;;8366090;28;20293;-43
2022/07/31 05:08:27;;;;;;;;;;;23.50;41.60;;;;;;8365399;28;19952;-43
2022/07/31 05:12:28;;;;;;;;;;;23.50;41.60;;;;;;8365945;28;19913;-43
2022/07/31 05:16:29;;;;;;;;;;;23.40;41.70;;;;;;8365513;28;19959;-42
2022/07/31 05:20:29;;;;;;;;;;;23.40;41.70;;;;;;8365162;28;19963;-44
2022/07/31 05:24:30;;;;;;;;;;;23.40;41.70;;;;;;8365199;28;20437;-42
2022/07/31 05:28:30;;;;;;;;;;;23.40;41.70;;;;;;8365017;28;19913;-42
2022/07/31 05:32:31;;;;;;;;;;;23.40;41.60;;;;;;8364492;28;19921;-42
2022/07/31 05:36:31;;;;;;;;;;;23.30;41.60;;;;;;8364878;28;19916;-43
2022/07/31 05:40:31;;;;;;;;;;;23.40;41.70;;;;;;8365025;28;19917;-42
2022/07/31 05:44:32;;;;;;;;;;;23.30;41.70;;;;;;8364263;28;19952;-42
2022/07/31 05:48:33;;;;;;;;;;;23.40;41.60;;;;;;8364639;28;20087;-43
2022/07/31 05:52:33;;;;;;;;;;;23.40;41.70;;;;;;8364342;28;19917;-43
2022/07/31 05:56:34;;;;;;;;;;;23.30;41.60;;;;;;8363973;28;19917;-43
2022/07/31 06:00:35;;;;;;;;;;;23.40;41.60;;;;;;8364518;28;19923;-42
2022/07/31 06:04:35;;;;;;;;;;;23.40;41.60;;;;;;8363375;28;19929;-42
2022/07/31 06:08:35;;;;;;;;;;;23.30;41.60;;;;;;8363456;28;19917;-42
2022/07/31 06:12:36;;;;;;;;;;;23.30;41.60;;;;;;8364037;28;20301;-42
2022/07/31 06:16:36;;;;;;;;;;;23.30;41.70;;;;;;8363899;28;19967;-42
2022/07/31 06:20:37;;;;;;;;;;;23.30;41.70;;;;;;8363337;28;20075;-43
2022/07/31 06:24:37;;;;;;;;;;;23.30;41.60;;;;;;8363431;28;19928;-43
2022/07/31 06:28:38;;;;;;;;;;;23.40;41.60;;;;;;8363440;28;19913;-42
2022/07/31 06:32:38;;;;;;;;;;;23.30;41.60;;;;;;8362714;28;20337;-43
2022/07/31 06:36:39;;;;;;;;;;;23.30;41.80;;;;;;8363706;28;20009;-44
2022/07/31 06:40:39;;;;;;;;;;;23.30;41.90;;;;;;8363133;28;19986;-43
2022/07/31 06:44:39;;;;;;;;;;;23.40;41.70;;;;;;8362673;28;19931;-43
2022/07/31 06:48:40;;;;;;;;;;;23.40;41.60;;;;;;8363251;28;20362;-42
2022/07/31 06:52:40;;;;;;;;;;;23.40;41.70;;;;;;8362869;28;19938;-43
2022/07/31 06:56:41;;;;;;;;;;;23.50;41.90;;;;;;8362699;28;19913;-42
2022/07/31 07:00:41;;;;;;;;;;;23.50;41.90;;;;;;8362909;28;19924;-42
2022/07/31 07:04:42;;;;;;;;;;;23.60;42.20;;;;;;8361358;28;19935;-40
2022/07/31 07:08:42;;;;;;;;;;;23.60;42.10;;;;;;8363174;28;19917;-43
2022/07/31 07:12:43;;;;;;;;;;;23.60;42.70;;;;;;8362664;28;19917;-43
2022/07/31 07:16:43;;;;;;;;;;;23.70;42.60;;;;;;8364690;28;19924;-41
2022/07/31 07:20:43;;;;;;;;;;;23.80;42.50;;;;;;8369279;28;20441;-44
2022/07/31 07:24:44;;;;;;;;;;;23.80;42.30;;;;;;8369208;28;19929;-42
2022/07/31 07:28:44;;;;;;;;;;;23.90;42.30;;;;;;8368508;28;19956;-41
2022/07/31 07:32:45;;;;;;;;;;;23.90;42.30;;;;;;8368900;28;19927;-42
2022/07/31 07:36:45;;;;;;;;;;;24.00;42.30;;;;;;8368920;28;20377;-43
2022/07/31 07:40:46;;;;;;;;;;;23.90;42.40;;;;;;8368088;28;19917;-43
2022/07/31 07:44:46;;;;;;;;;;;24.00;42.50;;;;;;8368701;28;19925;-42
2022/07/31 07:48:49;;;;;;;;;;;24.00;42.90;;;;;;8368504;28;19917;-42
2022/07/31 07:52:49;;;;;;;;;;;24.00;42.80;;;;;;8367712;28;20329;-41
2022/07/31 07:56:51;;;;;;;;;;;24.00;43.20;;;;;;8368382;28;19920;-43
2022/07/31 08:00:51;;;;;;;;;;;24.10;41.30;;;;;;8364259;28;19917;-42
2022/07/31 08:04:51;;;;;;;;;;;24.20;41.60;;;;;;8359850;28;19925;-42
2022/07/31 08:08:52;;;;;;;;;;;24.30;40.90;;;;;;8362863;28;19917;-42
2022/07/31 08:12:53;;;;;;;;;;;24.30;40.20;;;;;;8352902;28;20415;-42
2022/07/31 08:16:54;;;;;;;;;;;24.40;41.20;;;;;;8350593;28;19924;-42
2022/07/31 08:20:55;;;;;;;;;;;24.40;41.10;;;;;;8359083;28;19917;-42
2022/07/31 08:24:55;;;;;;;;;;;24.50;41.10;;;;;;8361190;28;20361;-42
2022/07/31 08:28:56;;;;;;;;;;;24.50;41.00;;;;;;8339214;28;19916;-42
2022/07/31 08:32:56;;;;;;;;;;;24.50;40.50;;;;;;8343836;28;19928;-43
2022/07/31 08:36:57;;;;;;;;;;;24.60;40.40;;;;;;8343962;28;20008;-42
2022/07/31 08:40:58;;;;;;;;;;;24.60;41.30;;;;;;8348154;28;20421;-42
2022/07/31 08:44:58;;;;;;;;;;;24.60;41.60;;;;;;8361274;28;19924;-44
2022/07/31 08:48:59;;;;;;;;;;;24.70;41.50;;;;;;8388609;28;20286;-44
2022/07/31 08:53:01;;;;;;;;;;;24.80;41.10;;;;;;8355592;28;19917;-44
2022/07/31 08:57:02;;;;;;;;;;;24.80;40.80;;;;;;8365298;28;19916;-43
2022/07/31 09:01:03;;;;;;;;;;;24.80;40.30;;;;;;8361027;28;19921;-43
2022/07/31 09:05:04;;;;;;;;;;;24.80;40.50;;;;;;8364049;28;19987;-43
2022/07/31 09:09:04;;;;;;;;;;;24.90;40.30;;;;;;8365893;28;19964;-44
2022/07/31 09:13:12;;;;;;;;;;;24.90;40.20;;;;;;8365600;28;19942;-42
2022/07/31 09:17:14;;;;;;;;;;;25.00;40.10;;;;;;8357027;28;19995;-43
2022/07/31 09:21:15;;;;;;;;;;;25.00;40.00;;;;;;8343259;28;19917;-42
2022/07/31 09:25:17;;;;;;;;;;;25.10;40.30;;;;;;8354071;28;19932;-42
2022/07/31 09:29:18;;;;;;;;;;;25.10;40.40;;;;;;8383930;28;19921;-42
2022/07/31 09:33:18;;;;;;;;;;;25.20;40.70;;;;;;8371789;28;20008;-43
2022/07/31 09:37:20;;;;;;;;;;;25.30;40.90;;;;;;8353375;28;19918;-43
2022/07/31 09:41:21;;;;;;;;;;;25.40;40.50;;;;;;8348932;28;20366;-43
2022/07/31 09:45:23;;;;;;;;;;;25.40;40.40;;;;;;8326865;28;19931;-43
2022/07/31 09:49:30;;;;;;;;;;;25.40;39.90;;;;;;8385225;28;19970;-44
2022/07/31 09:53:40;;;;;;;;;;;25.50;39.70;;;;;;8351312;28;19917;-43
2022/07/31 09:57:54;;;;;;;;;;;25.60;39.40;;;;;;8352228;28;20370;-43
2022/07/31 10:01:55;;;;;;;;;;;25.60;38.80;;;;;;8359827;28;19986;-45
2022/07/31 10:05:56;;;;;;;;;;;25.80;38.50;;;;;;8351710;28;19925;-43
2022/07/31 10:09:57;;;;;;;;;;;25.80;38.10;;;;;;8373991;28;19952;-43
2022/07/31 10:13:59;;;;;;;;;;;25.90;38.00;;;;;;8375614;28;19920;-45
2022/07/31 10:18:01;;;;;;;;;;;25.90;37.70;;;;;;8355067;28;20017;-43
2022/07/31 10:22:02;;;;;;;;;;;26.00;37.40;;;;;;8361436;28;19917;-43
2022/07/31 10:26:03;;;;;;;;;;;26.00;37.20;;;;;;8353684;28;19947;-43
2022/07/31 10:30:04;;;;;;;;;;;26.10;36.80;;;;;;8350801;28;19921;-43
2022/07/31 10:34:05;;;;;;;;;;;26.20;36.30;;;;;;8375009;28;20312;-43
2022/07/31 10:38:11;;;;;;;;;;;26.30;36.00;;;;;;8349667;28;20009;-44
2022/07/31 10:42:14;;;;;;;;;;;26.30;36.00;;;;;;8363338;28;20325;-44
2022/07/31 10:46:25;;;;;;;;;;;26.30;36.20;;;;;;8363017;28;19925;-44
2022/07/31 10:50:26;;;;;;;;;;;26.20;36.50;;;;;;8364800;28;20363;-45
2022/07/31 10:54:36;;;;;;;;;;;26.20;36.90;;;;;;8374125;28;19917;-44
2022/07/31 10:58:50;;;;;;;;;;;26.10;37.10;;;;;;8374210;28;19920;-44
2022/07/31 11:02:50;;;;;;;;;;;26.10;37.30;;;;;;8374202;28;19916;-45
2022/07/31 11:06:50;;;;;;;;;;;26.00;37.40;;;;;;8373697;28;19924;-44
2022/07/31 11:10:52;;;;;;;;;;;26.00;37.40;;;;;;8373420;28;19917;-45
2022/07/31 11:14:52;;;;;;;;;;;26.00;38.00;;;;;;8373935;28;19944;-45
2022/07/31 11:19:01;;;;;;;;;;;26.00;37.60;;;;;;8339327;28;19996;-43
2022/07/31 11:23:02;;;;;;;;;;;26.10;37.70;;;;;;8373566;28;19925;-44
2022/07/31 11:27:02;;;;;;;;;;;26.10;37.70;;;;;;8373713;28;19931;-44
2022/07/31 11:31:04;;;;;;;;;;;26.10;37.80;;;;;;8373540;28;19913;-44
2022/07/31 11:35:05;;;;;;;;;;;26.10;37.80;;;;;;8373202;28;19917;-44
2022/07/31 11:39:10;;;;;;;;;;;26.10;37.80;;;;;;8373796;28;19913;-44
2022/07/31 11:43:12;;;;;;;;;;;26.10;37.60;;;;;;8373702;28;19940;-45
2022/07/31 11:47:12;;;;;;;;;;;26.10;37.70;;;;;;8372816;28;19925;-45
2022/07/31 11:51:20;;;;;;;;;;;26.20;37.70;;;;;;8373124;28;20293;-44
2022/07/31 11:55:20;;;;;;;;;;;26.20;37.80;;;;;;8373385;28;19939;-44
2022/07/31 11:59:41;;;;;;;;;;;26.20;37.80;;;;;;8373116;28;19921;-45
2022/07/31 12:03:42;;;;;;;;;;;26.30;37.80;;;;;;8368205;28;20211;-44
2022/07/31 12:07:43;;;;;;;;;;;26.30;37.80;;;;;;8367497;28;20012;-44
2022/07/31 12:11:43;;;;;;;;;;;26.30;37.80;;;;;;8367757;28;19917;-45
2022/07/31 12:16:03;;;;;;;;;;;26.30;37.80;;;;;;8367633;28;19968;-45
2022/07/31 12:20:07;;;;;;;;;;;26.40;37.80;;;;;;8367002;28;19921;-45
2022/07/31 12:24:11;;;;;;;;;;;26.40;37.80;;;;;;8367627;28;20337;-45
2022/07/31 12:28:12;;;;;;;;;;;26.40;37.80;;;;;;8367454;28;19924;-46
2022/07/31 12:32:22;;;;;;;;;;;26.50;37.80;;;;;;8366671;28;19924;-47
2022/07/31 12:36:22;;;;;;;;;;;26.50;37.80;;;;;;8366944;28;20374;-45
2022/07/31 12:40:24;;;;;;;;;;;26.50;37.70;;;;;;8367260;28;19917;-44
2022/07/31 12:44:24;;;;;;;;;;;26.50;37.70;;;;;;8366107;28;20376;-44
2022/07/31 12:48:25;;;;;;;;;;;26.50;37.60;;;;;;8366695;28;19999;-46
2022/07/31 12:52:26;;;;;;;;;;;26.50;37.60;;;;;;8366397;28;19963;-45
2022/07/31 12:56:27;;;;;;;;;;;26.60;37.60;;;;;;8365824;28;19917;-44
2022/07/31 13:00:28;;;;;;;;;;;26.60;37.60;;;;;;8366254;28;20624;-45
2022/07/31 13:04:28;;;;;;;;;;;26.60;37.60;;;;;;8366196;28;19921;-45
2022/07/31 13:08:28;;;;;;;;;;;26.60;37.40;;;;;;8364792;28;19919;-45
2022/07/31 13:12:29;;;;;;;;;;;26.70;37.40;;;;;;8365800;28;19924;-45
2022/07/31 13:16:29;;;;;;;;;;;26.70;37.30;;;;;;8365344;28;19921;-44
2022/07/31 13:20:30;;;;;;;;;;;26.70;37.50;;;;;;8365410;28;19917;-45
2022/07/31 13:24:30;;;;;;;;;;;26.70;37.40;;;;;;8365692;28;19928;-45
2022/07/31 13:28:31;;;;;;;;;;;26.70;37.50;;;;;;8365327;28;19917;-44
2022/07/31 13:32:31;;;;;;;;;;;26.80;37.50;;;;;;8364683;28;20361;-46
2022/07/31 13:36:32;;;;;;;;;;;26.80;37.40;;;;;;8364344;28;19916;-44
2022/07/31 13:44:52;;;;;;;;;;;26.80;37.50;;;;;;8364528;28;19927;-48
2022/07/31 13:48:53;;;;;;;;;;;26.90;37.40;;;;;;8364855;28;20271;-45
2022/07/31 13:52:53;;;;;;;;;;;26.80;37.40;;;;;;8363919;28;19917;-45
2022/07/31 13:56:54;;;;;;;;;;;26.90;37.50;;;;;;8364821;28;19921;-45
2022/07/31 14:00:55;;;;;;;;;;;26.80;37.30;;;;;;8364406;28;20419;-44
2022/07/31 14:04:56;;;;;;;;;;;26.90;37.40;;;;;;8345682;28;20266;-44
2022/07/31 14:08:56;;;;;;;;;;;26.90;37.40;;;;;;8364301;28;20432;-46
2022/07/31 14:12:57;;;;;;;;;;;26.90;37.50;;;;;;8346157;28;19917;-44
2022/07/31 14:16:57;;;;;;;;;;;26.90;37.50;;;;;;8345480;28;19925;-45
2022/07/31 14:20:58;;;;;;;;;;;26.90;37.30;;;;;;8363799;28;19917;-46
2022/07/31 14:24:58;;;;;;;;;;;26.90;37.40;;;;;;8363215;28;19932;-44
2022/07/31 14:28:58;;;;;;;;;;;27.00;37.40;;;;;;8363590;28;19917;-45
2022/07/31 14:32:59;;;;;;;;;;;27.00;37.40;;;;;;8363420;28;19921;-45
2022/07/31 14:37:01;;;;;;;;;;;27.00;37.40;;;;;;8362859;28;21188;-44
2022/07/31 14:41:02;;;;;;;;;;;27.00;37.40;;;;;;8362893;28;20247;-44
2022/07/31 14:45:04;;;;;;;;;;;27.00;37.50;;;;;;8363689;28;19960;-45
2022/07/31 14:49:06;;;;;;;;;;;27.00;37.40;;;;;;8363490;28;20051;-44
2022/07/31 14:53:09;;;;;;;;;;;27.00;37.40;;;;;;8362489;28;19917;-46
2022/07/31 14:57:10;;;;;;;;;;;27.00;37.40;;;;;;8363319;28;19917;-46
2022/07/31 15:01:10;;;;;;;;;;;27.00;37.90;;;;;;8363022;28;20007;-45
2022/07/31 15:05:11;;;;;;;;;;;27.10;37.40;;;;;;8362731;28;19921;-45
2022/07/31 15:09:12;;;;;;;;;;;27.10;37.30;;;;;;8362907;28;19964;-45
2022/07/31 15:13:12;;;;;;;;;;;27.10;37.40;;;;;;8362871;28;19917;-44
2022/07/31 15:17:13;;;;;;;;;;;27.10;37.40;;;;;;8344487;28;20293;-44
2022/07/31 15:21:15;;;;;;;;;;;27.00;37.90;;;;;;8362933;28;19955;-44
2022/07/31 15:25:15;;;;;;;;;;;27.00;37.30;;;;;;8363160;28;20377;-45
2022/07/31 15:29:16;;;;;;;;;;;27.00;37.30;;;;;;8362056;28;19917;-45
2022/07/31 15:33:16;;;;;;;;;;;27.10;37.30;;;;;;8362714;28;19925;-45
2022/07/31 15:37:17;;;;;;;;;;;27.10;37.20;;;;;;8364439;28;20338;-45
2022/07/31 15:41:17;;;;;;;;;;;27.10;37.40;;;;;;8368183;28;20365;-45
2022/07/31 15:45:19;;;;;;;;;;;27.10;37.20;;;;;;8368756;28;19921;-46
2022/07/31 15:49:19;;;;;;;;;;;27.10;37.20;;;;;;8368679;28;19917;-46
2022/07/31 15:53:19;;;;;;;;;;;27.10;37.20;;;;;;8367920;28;20432;-44
2022/07/31 15:57:20;;;;;;;;;;;27.20;37.30;;;;;;8368109;28;19921;-46
2022/07/31 16:01:20;;;;;;;;;;;27.20;37.20;;;;;;8367989;28;19917;-45
2022/07/31 16:05:21;;;;;;;;;;;27.20;37.20;;;;;;8367665;28;19952;-44
2022/07/31 16:09:22;;;;;;;;;;;27.20;37.30;;;;;;8366648;28;19954;-44
2022/07/31 16:13:23;;;;;;;;;;;27.20;37.30;;;;;;8367652;28;19921;-44
2022/07/31 16:17:24;;;;;;;;;;;27.20;37.30;;;;;;8367193;28;19917;-44
2022/07/31 16:21:24;;;;;;;;;;;27.20;37.30;;;;;;8367378;28;19920;-44
2022/07/31 16:25:25;;;;;;;;;;;27.20;37.00;;;;;;8367494;28;20419;-44
2022/07/31 16:29:25;;;;;;;;;;;27.30;37.30;;;;;;8366705;28;19917;-45
2022/07/31 16:33:26;;;;;;;;;;;27.30;37.20;;;;;;8349448;28;19916;-44
2022/07/31 16:37:26;;;;;;;;;;;27.20;37.20;;;;;;8366875;28;19963;-45
2022/07/31 16:41:27;;;;;;;;;;;27.30;37.20;;;;;;8366138;28;19944;-44
2022/07/31 16:45:28;;;;;;;;;;;27.30;37.10;;;;;;8366670;28;19947;-44
2022/07/31 16:49:28;;;;;;;;;;;27.30;37.30;;;;;;8365818;28;19924;-44
2022/07/31 16:53:29;;;;;;;;;;;27.30;37.10;;;;;;8365770;28;19959;-44
2022/07/31 16:57:29;;;;;;;;;;;27.30;37.20;;;;;;8366210;28;19916;-44
2022/07/31 17:01:31;;;;;;;;;;;27.30;37.20;;;;;;8366086;28;19917;-45
2022/07/31 17:05:31;;;;;;;;;;;27.30;37.20;;;;;;8365715;28;19921;-44
2022/07/31 17:09:32;;;;;;;;;;;27.30;37.20;;;;;;8366054;28;19917;-45
2022/07/31 17:13:32;;;;;;;;;;;27.30;37.30;;;;;;8365993;28;19921;-44
2022/07/31 17:17:33;;;;;;;;;;;27.30;37.20;;;;;;8365205;28;20377;-45
2022/07/31 17:21:33;;;;;;;;;;;27.30;37.10;;;;;;8365562;28;20003;-44
2022/07/31 17:25:34;;;;;;;;;;;27.30;37.20;;;;;;8365538;28;19925;-44
2022/07/31 17:29:34;;;;;;;;;;;27.30;37.20;;;;;;8364865;28;19921;-44
2022/07/31 17:33:35;;;;;;;;;;;27.30;37.20;;;;;;8347208;28;19943;-44
2022/07/31 17:37:35;;;;;;;;;;;27.30;37.30;;;;;;8365062;28;19935;-44
2022/07/31 17:41:36;;;;;;;;;;;27.30;37.30;;;;;;8364418;28;20007;-44
2022/07/31 17:45:37;;;;;;;;;;;27.30;37.30;;;;;;8365076;28;19921;-46
2022/07/31 17:49:38;;;;;;;;;;;27.30;37.30;;;;;;8364674;28;20373;-45
2022/07/31 17:53:39;;;;;;;;;;;27.30;37.20;;;;;;8363930;28;19917;-45
2022/07/31 17:57:40;;;;;;;;;;;27.30;37.10;;;;;;8364592;28;20456;-45
2022/07/31 18:01:40;;;;;;;;;;;27.30;37.00;;;;;;8363508;28;20019;-44
2022/07/31 18:05:41;;;;;;;;;;;27.30;37.10;;;;;;8364026;28;19921;-45
2022/07/31 18:09:41;;;;;;;;;;;27.30;37.20;;;;;;8364400;28;19923;-46
2022/07/31 18:13:42;;;;;;;;;;;27.30;37.20;;;;;;8363667;28;19922;-42
2022/07/31 18:17:45;;;;;;;;;;;27.30;37.20;;;;;;8363721;28;19916;-45
2022/07/31 18:21:45;;;;;;;;;;;27.30;36.80;;;;;;8363936;28;20301;-44
2022/07/31 18:25:46;;;;;;;;;;;27.30;37.20;;;;;;8363381;28;19928;-44
2022/07/31 18:29:46;;;;;;;;;;;27.30;37.30;;;;;;8363470;28;19917;-44
2022/07/31 18:33:47;;;;;;;;;;;27.30;37.40;;;;;;8363721;28;20369;-45
2022/07/31 18:37:47;;;;;;;;;;;27.30;37.40;;;;;;8345126;28;19948;-45
2022/07/31 18:41:47;;;;;;;;;;;27.30;37.40;;;;;;8363286;28;19913;-45
2022/07/31 18:45:48;;;;;;;;;;;27.30;37.30;;;;;;8363555;28;19921;-45
2022/07/31 18:49:48;;;;;;;;;;;27.30;37.30;;;;;;8362849;28;19917;-45
2022/07/31 18:53:49;;;;;;;;;;;27.30;37.20;;;;;;8363495;28;19967;-45
2022/07/31 18:57:49;;;;;;;;;;;27.30;37.30;;;;;;8363167;28;19924;-45
2022/07/31 19:01:50;;;;;;;;;;;27.30;37.30;;;;;;8362619;28;19959;-46
2022/07/31 19:05:51;;;;;;;;;;;27.30;37.30;;;;;;8363094;28;19921;-45
2022/07/31 19:09:52;;;;;;;;;;;27.30;37.20;;;;;;8362020;28;20289;-45
2022/07/31 19:13:52;;;;;;;;;;;27.30;37.20;;;;;;8367346;28;19971;-46
2022/07/31 19:17:52;;;;;;;;;;;27.30;37.10;;;;;;8381526;28;19921;-45
2022/07/31 19:21:53;;;;;;;;;;;27.30;37.00;;;;;;8369629;28;19940;-46
2022/07/31 19:25:54;;;;;;;;;;;27.20;37.10;;;;;;8368741;28;20301;-45
2022/07/31 19:29:54;;;;;;;;;;;27.30;37.10;;;;;;8369738;28;19975;-44
2022/07/31 19:33:55;;;;;;;;;;;27.30;37.10;;;;;;8369070;28;19940;-45
2022/07/31 19:37:59;;;;;;;;;;;27.30;37.30;;;;;;8368492;28;19917;-46
2022/07/31 19:41:59;;;;;;;;;;;27.30;37.30;;;;;;8368948;28;19943;-46
2022/07/31 19:46:00;;;;;;;;;;;27.20;37.30;;;;;;8368739;28;19929;-45
2022/07/31 19:50:00;;;;;;;;;;;27.20;37.30;;;;;;8359872;28;19956;-45
2022/07/31 19:54:00;;;;;;;;;;;27.20;37.20;;;;;;8368748;28;20370;-45
2022/07/31 19:58:01;;;;;;;;;;;27.20;37.30;;;;;;8368285;28;19920;-44
2022/07/31 20:02:01;;;;;;;;;;;27.20;37.30;;;;;;8367927;28;19940;-45
2022/07/31 20:06:02;;;;;;;;;;;27.20;37.30;;;;;;8368238;28;20020;-44
2022/07/31 20:10:04;;;;;;;;;;;27.20;37.30;;;;;;8367942;28;19924;-45
2022/07/31 20:14:05;;;;;;;;;;;27.20;37.30;;;;;;8367253;28;19975;-44
2022/07/31 20:18:05;;;;;;;;;;;27.20;37.30;;;;;;8367599;28;19913;-45
2022/07/31 20:22:06;;;;;;;;;;;27.20;37.30;;;;;;8367678;28;19916;-44
2022/07/31 20:26:07;;;;;;;;;;;27.20;37.30;;;;;;8365773;28;19932;-44
2022/07/31 20:30:08;;;;;;;;;;;27.20;37.30;;;;;;8367260;28;19979;-44
2022/07/31 20:34:09;;;;;;;;;;;27.20;37.30;;;;;;8366966;28;19919;-45
2022/07/31 20:38:10;;;;;;;;;;;27.20;37.30;;;;;;8366545;28;19920;-44
2022/07/31 20:42:10;;;;;;;;;;;27.20;37.30;;;;;;8367343;28;19920;-44
2022/07/31 20:46:10;;;;;;;;;;;27.20;37.30;;;;;;8366689;28;20054;-46
2022/07/31 20:50:11;;;;;;;;;;;27.20;37.30;;;;;;8366277;28;19924;-46
2022/07/31 20:54:11;;;;;;;;;;;27.20;37.40;;;;;;8366642;28;20400;-45
2022/07/31 20:58:12;;;;;;;;;;;27.20;37.40;;;;;;8366427;28;20365;-44
2022/07/31 21:02:12;;;;;;;;;;;27.20;37.40;;;;;;8366058;28;19964;-44
2022/07/31 21:06:13;;;;;;;;;;;27.20;37.40;;;;;;8365954;28;19925;-43
2022/07/31 21:10:13;;;;;;;;;;;27.20;37.40;;;;;;8366211;28;19940;-45
2022/07/31 21:14:14;;;;;;;;;;;27.20;37.50;;;;;;8365578;28;19920;-45
2022/07/31 21:18:15;;;;;;;;;;;27.10;37.90;;;;;;8366090;28;19913;-44
2022/07/31 21:22:15;;;;;;;;;;;27.10;37.40;;;;;;8366071;28;19921;-44
2022/07/31 21:26:16;;;;;;;;;;;27.20;37.50;;;;;;8347135;28;19925;-44
2022/07/31 21:30:16;;;;;;;;;;;27.10;37.40;;;;;;8365805;28;19923;-45
2022/07/31 21:34:17;;;;;;;;;;;27.10;37.50;;;;;;8365145;28;19917;-44
2022/07/31 21:38:18;;;;;;;;;;;27.10;37.40;;;;;;8364680;28;19917;-45
2022/07/31 21:42:18;;;;;;;;;;;27.10;37.50;;;;;;8365536;28;20331;-44
2022/07/31 21:46:21;;;;;;;;;;;27.10;37.50;;;;;;8364703;28;19967;-44
2022/07/31 21:50:21;;;;;;;;;;;27.10;37.50;;;;;;8364398;28;20400;-44
2022/07/31 21:54:22;;;;;;;;;;;27.10;37.50;;;;;;8364824;28;19917;-44
2022/07/31 21:58:22;;;;;;;;;;;27.10;37.50;;;;;;8364497;28;19917;-44
2022/07/31 22:02:23;;;;;;;;;;;27.10;37.50;;;;;;8378360;28;19912;-45
2022/07/31 22:10:42;;;;;;;;;;;27.10;37.50;;;;;;8363912;28;19943;-43
2022/07/31 22:14:43;;;;;;;;;;;27.10;37.60;;;;;;8364328;28;19920;-44
2022/07/31 22:18:43;;;;;;;;;;;27.10;37.60;;;;;;8363933;28;19928;-44
2022/07/31 22:22:44;;;;;;;;;;;27.00;37.50;;;;;;8363748;28;19963;-44
2022/07/31 22:31:04;;;;;;;;;;;27.00;37.50;;;;;;8363813;28;19971;-44
2022/07/31 22:35:05;;;;;;;;;;;27.00;37.50;;;;;;8363058;28;19917;-44
2022/07/31 22:39:05;;;;;;;;;;;27.10;37.60;;;;;;8363313;28;19920;-44
2022/07/31 22:43:06;;;;;;;;;;;27.00;37.60;;;;;;8363611;28;19961;-44
2022/07/31 22:47:07;;;;;;;;;;;27.00;37.60;;;;;;8362231;28;20051;-44
2022/07/31 22:51:07;;;;;;;;;;;27.00;37.60;;;;;;8363399;28;19917;-44
2022/07/31 22:55:09;;;;;;;;;;;27.00;37.60;;;;;;8363292;28;19917;-44
2022/07/31 22:59:09;;;;;;;;;;;27.00;37.60;;;;;;8362671;28;19949;-44
2022/07/31 23:03:10;;;;;;;;;;;26.90;37.60;;;;;;8363593;28;19920;-44
2022/07/31 23:07:10;;;;;;;;;;;27.00;37.70;;;;;;8362905;28;19924;-45
2022/07/31 23:11:11;;;;;;;;;;;27.00;37.70;;;;;;8362458;28;19956;-45
2022/07/31 23:15:11;;;;;;;;;;;26.90;37.60;;;;;;8362822;28;19921;-45
2022/07/31 23:19:12;;;;;;;;;;;26.90;37.60;;;;;;8363066;28;19944;-44
2022/07/31 23:23:12;;;;;;;;;;;26.90;37.70;;;;;;8362570;28;20403;-45
2022/07/31 23:27:12;;;;;;;;;;;26.90;37.70;;;;;;8362553;28;19932;-44
2022/07/31 23:31:13;;;;;;;;;;;26.90;38.20;;;;;;8362637;28;19917;-46
2022/07/31 23:35:14;;;;;;;;;;;26.90;37.70;;;;;;8362192;28;19919;-44
2022/07/31 23:39:14;;;;;;;;;;;26.90;37.70;;;;;;8362584;28;19919;-44